Accueil
METAR-TAF:

METAR-TAF

Aéroports :

Hof, Allemagne

latitude: 50-19N, longitude: 011-53E, altitude: 567 m

Observation

Le bulletin a été fait il y a 19 minutes, à 12:20 UTC
Vent 10 kt de nord/nord-est, variant entre nord/nord-ouest et est/nord-est
Température 19°C
Humidité 46%
Pression 1023 hPa
Visibilité 10 km ou plus
pas de nuages en-dessous de 1500 mètres et pas de cumulonimbus.

METAR: EDQM 011220Z 03010KT 340V070 CAVOK 19/07 Q1023

Heure: 14:39 (12:39 UTC)

Prévision

Le bulletin a été fait il y a 1 heure et 39 minutes, à 11:00 UTC
Prévision valable du 01 à 12 UTC au 01 à 21 UTC
Vent 10 kt de nord/nord-est
Visibilité 10 km ou plus
Quelques nuages à une hauteur de 4000 ft
Evoluant progressivement
du 01 à 17 UTC au 01 à 19 UTC
Vent 4 kt de nord/nord-est

TAF: EDQM 011100Z 0112/0121 03010KT 9999 FEW040 BECMG 0117/0119 03004KT

Observations et prévisions météorologiques de plus de 4000 aéroports (messages METAR et TAF).

Les stations disponibles sont représentées par des disques jaunes et rouges sur la carte.

Passer la souris dessus pour voir le nom de la station.

Cliquer dessus pour voir les observations et prévisions météorologiques.

Pour changer de carte: cliquez sur les boutons verts avec une croix noire pour zoomer, sur le bouton vert avec un tiret pour effectuer un zoom arrière, ou sur les flèches vertes pour les cartes adjacentes.


METAR-TAF: